Rio Grande da Serra, Brazil
Current Conditions -  °F | °C
As of 9:00 AM on Thursday 23 Oct 2014 (Local Time) from SBSP Reporting Station
Overcast Overcast  
Wind Chill: 63°   Ceiling: 1400
Heat Index: 63°   Visibility: 6mi
Dew Point: 54°   Wind: 6mph
Humidity: 72%   Direction: 70°ENE
Pressure: 30.21"   Gusts: NA
Location:  23.8°S, 46.34°W
Report Text: SBSP 231100Z 07005KT 040V140 9999 OVC014 17/12 Q1023
Loading
Personal Weather Stations






























Interactive Weather Map
Tropical Storm Tracking
New forecast layout! Learn more

10-Day Weather Forecast

Advertisements
Track Severe Weather on mobile